DLH567 YSSY-SAEZ
Flight info
| Callsign | DLH567 |
|---|---|
| Flight time | N/A |
| Altitude | 33000 |
| Route | WOL DCT TONIM DCT BOTGU/N0486F350 DCT 47S60 DCT 54S167E 68S174W/N0484F370 71S166W 75S132W 73S100W/N0483F390 DCT GRA UT662 ASKAS/N0486F410 UT662 DIL UZ117 GBE GBE7U |
| Aircraft | A359/H-SDE2E3GHIJ3J4J5LM1ORWXY/LB1D1 |
Departure
| Time | 2026-05-06 04:27 |
|---|---|
| Airport | Sydney Kingsford Smith International Airport (YSSY) |
Arrival
| Time | N/A |
|---|---|
| Airport | Ezeiza International Airport - Ministro Pistarini (SAEZ) |
| Time | Latitude | Longitude | Altitude | Speed | Heading |
|---|---|---|---|---|---|
| 2026-05-06 04:08 | -33.93858 | 151.16980 | 27 ft | 0 kts | 253° |
| 2026-05-06 04:18 | -33.93856 | 151.16987 | 26 ft | 3 kts | 253° |
| 2026-05-06 04:18 | -33.93852 | 151.17011 | 27 ft | 3 kts | 270° |
| 2026-05-06 04:19 | -33.93854 | 151.17034 | 24 ft | 3 kts | 290° |
| 2026-05-06 04:19 | -33.93863 | 151.17056 | 24 ft | 3 kts | 310° |
| 2026-05-06 04:19 | -33.93877 | 151.17072 | 26 ft | 3 kts | 330° |
| 2026-05-06 04:19 | -33.93881 | 151.17074 | 25 ft | 0 kts | 335° |
| 2026-05-06 04:23 | -33.93877 | 151.17072 | 27 ft | 2 kts | 339° |
| 2026-05-06 04:23 | -33.93817 | 151.17056 | 27 ft | 11 kts | 348° |
| 2026-05-06 04:23 | -33.93757 | 151.17061 | 27 ft | 15 kts | 23° |
| 2026-05-06 04:23 | -33.93648 | 151.17121 | 26 ft | 20 kts | 9° |
| 2026-05-06 04:24 | -33.93494 | 151.17095 | 27 ft | 25 kts | 348° |
| 2026-05-06 04:24 | -33.93319 | 151.17018 | 27 ft | 29 kts | 325° |
| 2026-05-06 04:24 | -33.93122 | 151.16926 | 27 ft | 32 kts | 346° |
| 2026-05-06 04:24 | -33.92976 | 151.17012 | 29 ft | 9 kts | 77° |
| 2026-05-06 04:25 | -33.92975 | 151.17015 | 30 ft | 0 kts | 76° |
| 2026-05-06 04:25 | -33.92975 | 151.17017 | 30 ft | 1 kts | 76° |
| 2026-05-06 04:26 | -33.92969 | 151.17051 | 28 ft | 7 kts | 80° |
| 2026-05-06 04:26 | -33.92977 | 151.17131 | 30 ft | 12 kts | 116° |
| 2026-05-06 04:26 | -33.93060 | 151.17193 | 27 ft | 16 kts | 163° |
| 2026-05-06 04:26 | -33.93301 | 151.17256 | 31 ft | 69 kts | 168° |
| 2026-05-06 04:27 | -33.94015 | 151.17435 | 27 ft | 138 kts | 168° |
| 2026-05-06 04:27 | -33.95150 | 151.17730 | 127 ft | 187 kts | 167° |
| 2026-05-06 04:27 | -33.96420 | 151.18105 | 1004 ft | 182 kts | 159° |
| 2026-05-06 04:27 | -33.97635 | 151.18280 | 1545 ft | 182 kts | 186° |
| 2026-05-06 04:28 | -33.98945 | 151.18048 | 1756 ft | 200 kts | 188° |
| 2026-05-06 04:28 | -34.00388 | 151.17817 | 2017 ft | 215 kts | 186° |
| 2026-05-06 04:28 | -34.01895 | 151.17647 | 2422 ft | 220 kts | 184° |
| 2026-05-06 04:28 | -34.03441 | 151.17787 | 2851 ft | 224 kts | 168° |
| 2026-05-06 04:29 | -34.04968 | 151.18247 | 3327 ft | 227 kts | 165° |
| 2026-05-06 04:29 | -34.06497 | 151.18760 | 3776 ft | 229 kts | 165° |
| 2026-05-06 04:29 | -34.08043 | 151.19281 | 4212 ft | 231 kts | 165° |
| 2026-05-06 04:29 | -34.09581 | 151.19801 | 4638 ft | 233 kts | 165° |
| 2026-05-06 04:30 | -34.11153 | 151.20330 | 5070 ft | 236 kts | 165° |
| 2026-05-06 04:30 | -34.12756 | 151.20871 | 5386 ft | 246 kts | 165° |
| 2026-05-06 04:30 | -34.14464 | 151.21438 | 5574 ft | 263 kts | 165° |
| 2026-05-06 04:30 | -34.16273 | 151.22038 | 5874 ft | 276 kts | 165° |
| 2026-05-06 04:31 | -34.18162 | 151.22559 | 6365 ft | 281 kts | 174° |
| 2026-05-06 04:31 | -34.20103 | 151.22337 | 6870 ft | 282 kts | 201° |
| 2026-05-06 04:31 | -34.21914 | 151.21451 | 7470 ft | 283 kts | 202° |
| 2026-05-06 04:31 | -34.23820 | 151.20792 | 8066 ft | 286 kts | 194° |
| 2026-05-06 04:32 | -34.25777 | 151.20294 | 8683 ft | 288 kts | 193° |
| 2026-05-06 04:32 | -34.27752 | 151.19822 | 9311 ft | 290 kts | 193° |
| 2026-05-06 04:32 | -34.29737 | 151.19358 | 9949 ft | 291 kts | 193° |
| 2026-05-06 04:32 | -34.31718 | 151.18900 | 10382 ft | 299 kts | 193° |
| 2026-05-06 04:33 | -34.33813 | 151.18420 | 10648 ft | 313 kts | 193° |
| 2026-05-06 04:33 | -34.35997 | 151.17985 | 10997 ft | 325 kts | 187° |
| 2026-05-06 04:33 | -34.38308 | 151.18146 | 11209 ft | 344 kts | 168° |
| 2026-05-06 04:33 | -34.40520 | 151.19386 | 11408 ft | 362 kts | 143° |
| 2026-05-06 04:34 | -34.42349 | 151.21551 | 11643 ft | 376 kts | 130° |
| 2026-05-06 04:34 | -34.43913 | 151.24156 | 11868 ft | 389 kts | 123° |
| 2026-05-06 04:34 | -34.45352 | 151.26987 | 12089 ft | 401 kts | 121° |
| 2026-05-06 04:34 | -34.46777 | 151.29942 | 12409 ft | 408 kts | 121° |
| 2026-05-06 04:35 | -34.48229 | 151.32925 | 12866 ft | 412 kts | 122° |
| 2026-05-06 04:35 | -34.49729 | 151.35912 | 13307 ft | 416 kts | 123° |
| 2026-05-06 04:35 | -34.51277 | 151.38899 | 13757 ft | 420 kts | 123° |
| 2026-05-06 04:35 | -34.52839 | 151.41851 | 14169 ft | 423 kts | 124° |
| 2026-05-06 04:36 | -34.54450 | 151.44863 | 14616 ft | 426 kts | 124° |
| 2026-05-06 04:36 | -34.56071 | 151.47885 | 15075 ft | 428 kts | 124° |
| 2026-05-06 04:36 | -34.57700 | 151.50919 | 15526 ft | 430 kts | 124° |
| 2026-05-06 04:36 | -34.59338 | 151.53977 | 15984 ft | 432 kts | 124° |
| 2026-05-06 04:37 | -34.60982 | 151.57050 | 16461 ft | 435 kts | 124° |
| 2026-05-06 04:37 | -34.62629 | 151.60138 | 16924 ft | 437 kts | 124° |
| 2026-05-06 04:37 | -34.64286 | 151.63250 | 17382 ft | 440 kts | 124° |
| 2026-05-06 04:37 | -34.65952 | 151.66386 | 17849 ft | 442 kts | 123° |
| 2026-05-06 04:38 | -34.67625 | 151.69538 | 18296 ft | 445 kts | 123° |
| 2026-05-06 04:38 | -34.69281 | 151.72658 | 18703 ft | 447 kts | 124° |
| 2026-05-06 04:38 | -34.70975 | 151.75850 | 19070 ft | 450 kts | 123° |
| 2026-05-06 04:38 | -34.72678 | 151.79064 | 19466 ft | 453 kts | 124° |
| 2026-05-06 04:39 | -34.74389 | 151.82298 | 19863 ft | 456 kts | 123° |
| 2026-05-06 04:39 | -34.76110 | 151.85554 | 20245 ft | 458 kts | 123° |
| 2026-05-06 04:39 | -34.77843 | 151.88831 | 20655 ft | 461 kts | 124° |
| 2026-05-06 04:39 | -34.79586 | 151.92129 | 21070 ft | 464 kts | 124° |
| 2026-05-06 04:40 | -34.81332 | 151.95442 | 21469 ft | 467 kts | 123° |
| 2026-05-06 04:40 | -34.83091 | 151.98783 | 21893 ft | 470 kts | 123° |
| 2026-05-06 04:40 | -34.84858 | 152.02142 | 22302 ft | 473 kts | 123° |
| 2026-05-06 04:40 | -34.86634 | 152.05523 | 22723 ft | 475 kts | 123° |
| 2026-05-06 04:41 | -34.88403 | 152.08887 | 23137 ft | 478 kts | 124° |
| 2026-05-06 04:41 | -34.90204 | 152.12321 | 23564 ft | 481 kts | 123° |
| 2026-05-06 04:41 | -34.92010 | 152.15770 | 23918 ft | 484 kts | 123° |
| 2026-05-06 04:41 | -34.93833 | 152.19252 | 24292 ft | 487 kts | 123° |
| 2026-05-06 04:42 | -34.95664 | 152.22745 | 24633 ft | 489 kts | 123° |
| 2026-05-06 04:42 | -34.97498 | 152.26250 | 24972 ft | 492 kts | 123° |
| 2026-05-06 04:42 | -34.99342 | 152.29777 | 25309 ft | 494 kts | 123° |
| 2026-05-06 04:42 | -35.01189 | 152.33317 | 25647 ft | 497 kts | 123° |
| 2026-05-06 04:43 | -35.03028 | 152.36846 | 25972 ft | 499 kts | 123° |
| 2026-05-06 04:43 | -35.04894 | 152.40434 | 26301 ft | 502 kts | 123° |
| 2026-05-06 04:43 | -35.06769 | 152.44042 | 26612 ft | 504 kts | 123° |
| 2026-05-06 04:43 | -35.08656 | 152.47675 | 26932 ft | 507 kts | 123° |
| 2026-05-06 04:44 | -35.10549 | 152.51322 | 27235 ft | 509 kts | 123° |
| 2026-05-06 04:44 | -35.12456 | 152.54998 | 27523 ft | 512 kts | 123° |
| 2026-05-06 04:44 | -35.14363 | 152.58674 | 27819 ft | 515 kts | 123° |
| 2026-05-06 04:44 | -35.16284 | 152.62385 | 28117 ft | 517 kts | 123° |
| 2026-05-06 04:45 | -35.18184 | 152.66056 | 28407 ft | 519 kts | 123° |
| 2026-05-06 04:45 | -35.20119 | 152.69803 | 28684 ft | 521 kts | 123° |
| 2026-05-06 04:45 | -35.22062 | 152.73572 | 28939 ft | 524 kts | 123° |
| 2026-05-06 04:45 | -35.24001 | 152.77337 | 29322 ft | 523 kts | 123° |
| 2026-05-06 04:46 | -35.25940 | 152.81107 | 29704 ft | 523 kts | 123° |
| 2026-05-06 04:46 | -35.27878 | 152.84878 | 30057 ft | 523 kts | 123° |
| 2026-05-06 04:46 | -35.29813 | 152.88646 | 30365 ft | 522 kts | 123° |
| 2026-05-06 04:46 | -35.31749 | 152.92419 | 30652 ft | 523 kts | 123° |
| 2026-05-06 04:47 | -35.33660 | 152.96148 | 30963 ft | 522 kts | 123° |
| 2026-05-06 04:47 | -35.35587 | 152.99913 | 31272 ft | 521 kts | 123° |
| 2026-05-06 04:47 | -35.37509 | 153.03673 | 31564 ft | 520 kts | 123° |
| 2026-05-06 04:47 | -35.39432 | 153.07438 | 31857 ft | 519 kts | 123° |
| 2026-05-06 04:48 | -35.41349 | 153.11196 | 32137 ft | 518 kts | 123° |
| 2026-05-06 04:48 | -35.43261 | 153.14951 | 32391 ft | 518 kts | 123° |
| 2026-05-06 04:48 | -35.45166 | 153.18694 | 32648 ft | 518 kts | 123° |
| 2026-05-06 04:48 | -35.47048 | 153.22394 | 32889 ft | 517 kts | 123° |
| 2026-05-06 04:49 | -35.48955 | 153.26148 | 33097 ft | 518 kts | 123° |